Time;durP1;ratioP1;P1;durP2;ratioP2;P2;SDS_P1;SDS_P2;PMS_P1;PMS_P2;Temp;Humidity;BMP_temperature;BMP_pressure;BME280_temperature;BME280_humidity;BME280_pressure;Samples;Min_cycle;Max_cycle;Signal;HPM_P1;HPM_P2
2022/07/20 00:01:58;;;;;;;6.73;3.80;;;;;;;26.54;50.46;100063.03;5091003;28;20162;-64
2022/07/20 00:04:23;;;;;;;5.00;3.97;;;;;;;26.52;50.56;100067.63;5092411;28;20182;-62
2022/07/20 00:06:49;;;;;;;5.50;3.30;;;;;;;26.51;50.77;100057.31;5091876;28;20198;-61
2022/07/20 00:11:58;;;;;;;8.73;4.30;;;;;;;26.48;49.86;100058.19;5091978;28;20183;-61
2022/07/20 00:14:24;;;;;;;8.37;4.20;;;;;;;26.49;50.79;100062.75;5092276;28;20857;-61
2022/07/20 00:16:49;;;;;;;8.73;4.57;;;;;;;26.49;50.16;100062.75;5092056;28;20169;-61
2022/07/20 00:19:14;;;;;;;8.10;4.90;;;;;;;26.50;50.49;100068.06;5091505;28;20173;-61
2022/07/20 00:21:40;;;;;;;8.70;4.03;;;;;;;26.51;50.88;100068.91;5092421;28;20177;-61
2022/07/20 00:24:06;;;;;;;7.17;4.40;;;;;;;26.51;50.61;100072.63;5090590;28;20171;-61
2022/07/20 00:26:31;;;;;;;5.87;3.20;;;;;;;26.51;50.44;100074.69;5083993;28;20178;-61
2022/07/20 00:28:57;;;;;;;5.83;4.20;;;;;;;26.52;50.85;100077.16;5089787;28;20276;-61
2022/07/20 00:31:22;;;;;;;10.60;4.23;;;;;;;26.52;51.00;100076.31;5091860;28;20171;-61
2022/07/20 00:33:48;;;;;;;7.07;4.20;;;;;;;26.51;50.47;100075.53;5091890;28;20219;-61
2022/07/20 00:36:17;;;;;;;7.97;4.37;;;;;;;26.51;50.77;100075.53;5091537;28;20542;-61
2022/07/20 00:38:42;;;;;;;10.13;4.07;;;;;;;26.51;50.98;100078.41;5091682;28;20182;-61
2022/07/20 00:41:08;;;;;;;6.60;4.70;;;;;;;26.51;50.99;100071.78;5091476;28;20486;-61
2022/07/20 00:44:07;;;;;;;11.40;4.07;;;;;;;26.49;50.64;100075.13;5091593;28;20541;-61
2022/07/20 00:46:37;;;;;;;6.87;3.80;;;;;;;26.47;50.73;100068.13;5091868;28;20197;-61
2022/07/20 00:49:04;;;;;;;6.30;3.73;;;;;;;26.47;50.47;100071.88;5091457;28;20448;-62
2022/07/20 00:51:29;;;;;;;5.30;3.83;;;;;;;26.48;50.90;100076.38;5090682;28;20556;-62
2022/07/20 00:53:55;;;;;;;5.43;3.70;;;;;;;26.48;51.06;100064.81;5091378;28;20412;-61
2022/07/20 00:56:21;;;;;;;6.17;4.30;;;;;;;26.49;51.22;100072.22;5091127;28;20174;-61
2022/07/20 00:58:46;;;;;;;8.83;4.50;;;;;;;26.50;51.34;100073.06;5091390;28;20170;-61
2022/07/20 01:01:12;;;;;;;5.70;4.30;;;;;;;26.48;50.87;100070.59;5091712;28;20661;-61
2022/07/20 01:03:37;;;;;;;5.87;4.00;;;;;;;26.50;51.01;100073.84;5090951;28;20167;-61
2022/07/20 01:06:03;;;;;;;7.60;3.83;;;;;;;26.50;50.69;100073.84;5089189;28;20194;-61
2022/07/20 01:08:29;;;;;;;6.10;3.60;;;;;;;26.46;50.63;100078.91;5089912;28;20225;-61
2022/07/20 01:10:55;;;;;;;5.77;3.97;;;;;;;26.46;51.04;100070.22;5089285;28;20182;-61
2022/07/20 01:13:21;;;;;;;9.17;4.23;;;;;;;26.47;50.80;100086.34;5087804;28;20270;-61
2022/07/20 01:15:46;;;;;;;7.43;4.10;;;;;;;26.46;51.27;100078.91;5089080;28;20412;-61
2022/07/20 01:18:12;;;;;;;8.63;4.03;;;;;;;26.48;50.79;100081.34;5089523;28;20646;-61
2022/07/20 01:20:37;;;;;;;5.77;4.43;;;;;;;26.47;50.77;100079.72;5090267;28;20177;-61
2022/07/20 01:23:03;;;;;;;7.67;4.13;;;;;;;26.47;51.08;100080.56;5072870;28;20182;-61
2022/07/20 01:25:28;;;;;;;7.50;4.63;;;;;;;26.47;51.28;100073.94;5089203;28;20174;-61
2022/07/20 01:27:56;;;;;;;5.53;4.30;;;;;;;26.48;50.74;100078.44;5085000;28;20537;-61
2022/07/20 01:30:22;;;;;;;7.77;3.93;;;;;;;26.46;51.35;100084.72;5090760;28;20610;-61
2022/07/20 01:32:47;;;;;;;8.07;4.77;;;;;;;26.47;50.92;100082.63;5090572;28;20421;-61
2022/07/20 01:35:13;;;;;;;8.60;4.57;;;;;;;26.46;51.23;100087.59;5090386;28;20178;-61
2022/07/20 01:37:38;;;;;;;4.70;3.70;;;;;;;26.45;50.49;100090.94;5091272;28;20174;-61
2022/07/20 01:40:04;;;;;;;8.00;4.20;;;;;;;26.43;51.39;100082.69;5090779;28;20715;-61
2022/07/20 01:42:29;;;;;;;5.50;4.00;;;;;;;26.44;50.99;100084.31;5090932;28;20197;-61
2022/07/20 01:44:55;;;;;;;5.87;4.43;;;;;;;26.44;51.03;100086.41;5090479;28;20162;-61
2022/07/20 01:47:21;;;;;;;7.13;3.83;;;;;;;26.44;51.39;100087.22;5090964;28;20170;-61
2022/07/20 01:49:46;;;;;;;8.00;4.37;;;;;;;26.44;50.97;100087.22;5090582;28;20179;-61
2022/07/20 01:52:11;;;;;;;6.73;4.53;;;;;;;26.44;51.21;100093.00;5090812;28;20746;-61
2022/07/20 01:54:37;;;;;;;7.20;4.30;;;;;;;26.44;51.55;100089.31;5091035;28;20224;-61
2022/07/20 01:57:03;;;;;;;6.53;4.20;;;;;;;26.43;51.03;100096.31;5075674;28;20298;-61
2022/07/20 01:59:28;;;;;;;5.77;3.70;;;;;;;26.43;51.43;100096.31;5069456;28;20159;-61
2022/07/20 02:01:54;;;;;;;9.23;4.73;;;;;;;26.43;51.02;100105.84;5069332;28;20956;-61
2022/07/20 02:04:19;;;;;;;6.80;4.30;;;;;;;26.42;51.46;100089.75;5069177;28;20175;-61
2022/07/20 02:06:45;;;;;;;7.27;4.33;;;;;;;26.43;51.47;100105.84;5069165;28;20194;-61
2022/07/20 02:09:10;;;;;;;7.00;4.10;;;;;;;26.42;51.12;100101.31;5069096;28;20223;-61
2022/07/20 02:11:36;;;;;;;6.10;3.97;;;;;;;26.42;51.02;100100.50;5079100;28;20175;-61
2022/07/20 02:14:01;;;;;;;5.53;3.90;;;;;;;26.42;51.19;100101.31;5090227;28;20526;-61
2022/07/20 02:16:27;;;;;;;6.00;3.90;;;;;;;26.41;50.95;100102.59;5090644;28;20420;-61
2022/07/20 02:18:57;;;;;;;6.37;4.00;;;;;;;26.41;51.09;100098.84;5094467;28;20154;-61
2022/07/20 02:21:23;;;;;;;7.13;3.90;;;;;;;26.41;50.95;100098.84;5073967;28;20178;-61
2022/07/20 02:23:49;;;;;;;5.50;3.63;;;;;;;26.41;51.66;100102.59;5086001;28;20424;-62
2022/07/20 02:26:14;;;;;;;5.60;4.10;;;;;;;26.40;51.33;100098.03;5093965;28;20189;-62
2022/07/20 02:28:40;;;;;;;6.57;4.00;;;;;;;26.40;51.47;100092.25;5094246;28;20416;-62
2022/07/20 02:31:06;;;;;;;9.70;4.40;;;;;;;26.39;51.37;100099.28;5093940;28;20174;-61
2022/07/20 02:33:31;;;;;;;7.27;4.10;;;;;;;26.38;51.33;100094.75;5093899;28;20170;-61
2022/07/20 02:35:57;;;;;;;7.83;4.27;;;;;;;26.37;50.88;100103.88;5092909;28;20200;-61
2022/07/20 02:38:22;;;;;;;6.97;4.30;;;;;;;26.37;51.01;100101.00;5092338;28;20182;-63
2022/07/20 02:40:47;;;;;;;5.43;3.60;;;;;;;26.36;51.47;100094.41;5091715;28;20195;-63
2022/07/20 02:43:13;;;;;;;6.80;4.20;;;;;;;26.35;51.55;100103.53;5092076;28;20708;-63
2022/07/20 02:45:38;;;;;;;6.27;4.40;;;;;;;26.36;51.37;100105.16;5091894;28;20167;-63
2022/07/20 02:48:04;;;;;;;5.10;3.53;;;;;;;26.35;50.96;100098.53;5091815;28;20171;-63
2022/07/20 02:50:30;;;;;;;7.03;4.37;;;;;;;26.34;51.68;100099.78;5091904;28;20190;-63
2022/07/20 02:52:56;;;;;;;4.60;3.50;;;;;;;26.36;51.66;100099.34;5093948;28;20190;-63
2022/07/20 02:55:21;;;;;;;8.73;3.83;;;;;;;26.34;51.74;100099.78;5092946;28;20420;-63
2022/07/20 02:57:47;;;;;;;5.40;4.00;;;;;;;26.34;51.52;100088.22;5090993;28;20220;-63
2022/07/20 03:00:12;;;;;;;6.83;4.50;;;;;;;26.35;50.95;100094.84;5093469;28;20175;-63
2022/07/20 03:02:38;;;;;;;6.17;4.20;;;;;;;26.34;51.53;100088.22;5093323;28;20174;-63
2022/07/20 03:05:04;;;;;;;5.30;3.43;;;;;;;26.34;50.96;100091.09;5093783;28;20194;-63
2022/07/20 03:07:29;;;;;;;8.20;4.67;;;;;;;26.34;51.70;100088.22;5093550;28;20605;-63
2022/07/20 03:09:54;;;;;;;6.50;3.90;;;;;;;26.32;51.59;100096.53;5091908;28;20234;-63
2022/07/20 03:12:20;;;;;;;8.30;4.97;;;;;;;26.33;51.69;100098.16;5093313;28;20178;-63
2022/07/20 03:14:45;;;;;;;7.33;4.57;;;;;;;26.31;51.49;100100.69;5093395;28;20178;-63
2022/07/20 03:17:11;;;;;;;6.23;3.80;;;;;;;26.31;51.59;100105.66;5093147;28;20182;-63
2022/07/20 03:19:36;;;;;;;7.30;3.97;;;;;;;26.32;51.33;100111.00;5092895;28;20609;-63
2022/07/20 03:22:02;;;;;;;6.60;3.70;;;;;;;26.31;51.73;100115.16;5093159;28;20170;-63
2022/07/20 03:24:27;;;;;;;6.30;4.17;;;;;;;26.30;51.78;100110.59;5093097;28;20179;-63
2022/07/20 03:26:52;;;;;;;6.90;4.40;;;;;;;26.31;51.73;100117.22;5085806;28;20182;-63
2022/07/20 03:29:18;;;;;;;6.90;3.83;;;;;;;26.31;51.51;100111.44;5092181;28;20224;-63
2022/07/20 03:31:44;;;;;;;7.80;4.07;;;;;;;26.30;51.23;100113.50;5093026;28;20175;-63
2022/07/20 03:34:09;;;;;;;7.23;4.27;;;;;;;26.30;51.55;100121.38;5093020;28;20170;-63
2022/07/20 03:36:35;;;;;;;9.73;4.20;;;;;;;26.29;51.07;100120.56;5092887;28;20170;-63
2022/07/20 03:39:00;;;;;;;7.20;3.90;;;;;;;26.27;51.43;100123.06;5092678;28;20189;-63
2022/07/20 03:41:25;;;;;;;5.33;4.03;;;;;;;26.28;51.96;100130.50;5092859;28;20542;-63
2022/07/20 03:43:51;;;;;;;6.77;4.23;;;;;;;26.28;51.59;100130.50;5092951;28;20170;-63
2022/07/20 03:46:17;;;;;;;6.43;3.77;;;;;;;26.29;51.66;100125.53;5092643;28;20174;-63
2022/07/20 03:48:44;;;;;;;6.30;4.20;;;;;;;26.28;51.54;100130.50;5092194;28;20178;-63
2022/07/20 03:51:09;;;;;;;7.43;4.53;;;;;;;26.27;51.62;100140.44;5092558;28;20412;-63
2022/07/20 03:53:35;;;;;;;6.67;4.50;;;;;;;26.26;51.78;100138.81;5092635;28;20523;-63
2022/07/20 03:56:00;;;;;;;8.23;4.87;;;;;;;26.24;51.51;100141.31;5092563;28;20556;-63
2022/07/20 03:58:25;;;;;;;9.03;4.30;;;;;;;26.25;51.68;100142.94;5092061;28;20695;-63
2022/07/20 04:00:51;;;;;;;5.63;4.40;;;;;;;26.24;51.30;100147.09;5091631;28;20506;-63
2022/07/20 04:03:16;;;;;;;7.00;4.60;;;;;;;26.25;51.51;100156.63;5090220;28;20203;-63
2022/07/20 04:05:45;;;;;;;7.20;4.60;;;;;;;26.23;51.42;100148.34;5090571;28;20201;-63
2022/07/20 04:08:10;;;;;;;7.20;4.10;;;;;;;26.23;51.80;100159.09;5089785;28;20208;-63
2022/07/20 04:10:36;;;;;;;6.57;4.40;;;;;;;26.23;51.41;100167.78;5090238;28;21026;-63
2022/07/20 04:13:04;;;;;;;8.23;4.20;;;;;;;26.22;51.29;100169.88;5089710;28;20174;-63
2022/07/20 04:15:29;;;;;;;6.70;4.40;;;;;;;26.22;51.49;100178.56;5090579;28;20220;-63
2022/07/20 04:17:55;;;;;;;6.90;4.00;;;;;;;26.22;51.76;100178.56;5091166;28;20416;-63
2022/07/20 04:20:20;;;;;;;11.87;4.63;;;;;;;26.22;51.74;100175.69;5089708;28;20170;-63
2022/07/20 04:22:46;;;;;;;7.10;4.43;;;;;;;26.23;51.75;100170.69;5090478;28;20170;-63
2022/07/20 04:25:11;;;;;;;9.20;4.70;;;;;;;26.23;51.82;100177.31;5090055;28;20531;-63
2022/07/20 04:27:37;;;;;;;5.80;3.93;;;;;;;26.23;51.95;100179.38;5082292;28;20197;-63
2022/07/20 04:30:03;;;;;;;6.07;4.00;;;;;;;26.22;52.19;100181.47;5087256;28;20202;-64
2022/07/20 04:32:29;;;;;;;9.83;4.27;;;;;;;26.23;52.26;100170.69;5090674;28;20435;-63
2022/07/20 04:34:54;;;;;;;6.20;3.83;;;;;;;26.22;51.97;100174.84;5091562;28;20468;-63
2022/07/20 04:37:20;;;;;;;5.37;3.90;;;;;;;26.23;52.44;100177.31;5090764;28;20244;-63
2022/07/20 04:39:45;;;;;;;4.97;3.57;;;;;;;26.24;52.20;100173.16;5090640;28;20710;-63
2022/07/20 04:42:11;;;;;;;11.30;4.23;;;;;;;26.27;52.19;100183.03;5090446;28;20605;-63
2022/07/20 04:44:36;;;;;;;6.57;4.33;;;;;;;26.25;51.81;100180.56;5091226;28;20174;-63
2022/07/20 04:47:01;;;;;;;7.20;4.67;;;;;;;26.27;52.25;100180.97;5090554;28;20170;-63
2022/07/20 04:49:27;;;;;;;5.63;4.13;;;;;;;26.28;51.87;100178.88;5091296;28;20202;-63
2022/07/20 04:51:52;;;;;;;7.10;4.10;;;;;;;26.27;51.98;100180.13;5090033;28;20186;-63
2022/07/20 04:54:18;;;;;;;6.50;4.60;;;;;;;26.28;51.94;100181.78;5090503;28;20252;-63
2022/07/20 04:56:44;;;;;;;5.90;4.20;;;;;;;26.29;52.46;100183.44;5090154;28;20206;-63
2022/07/20 04:59:10;;;;;;;8.30;4.70;;;;;;;26.31;52.20;100180.91;5090744;28;20652;-63
2022/07/20 05:01:35;;;;;;;6.73;3.73;;;;;;;26.30;52.42;100185.88;5090591;28;20423;-63
2022/07/20 05:04:01;;;;;;;7.77;4.70;;;;;;;26.31;51.90;100175.97;5090522;28;20186;-63
2022/07/20 05:06:26;;;;;;;10.23;4.30;;;;;;;26.26;52.11;100173.56;5087588;28;20213;-63
2022/07/20 05:08:52;;;;;;;11.63;6.10;;;;;;;26.37;53.65;100170.47;5087437;28;20222;-63
2022/07/20 05:11:17;;;;;;;20.10;8.13;;;;;;;26.56;56.29;100184.25;5089484;28;20182;-63
2022/07/20 05:13:42;;;;;;;15.20;9.10;;;;;;;26.85;56.30;100174.63;5088749;28;20197;-63
2022/07/20 05:16:09;;;;;;;17.50;8.17;;;;;;;26.80;56.09;100169.34;5089193;28;20174;-63
2022/07/20 05:18:34;;;;;;;15.10;7.73;;;;;;;26.68;56.19;100183.63;5089717;28;20190;-63
2022/07/20 05:21:00;;;;;;;10.90;6.70;;;;;;;26.40;55.67;100179.09;5089252;28;20820;-63
2022/07/20 05:23:25;;;;;;;17.10;6.80;;;;;;;26.41;55.59;100186.56;5087508;28;20221;-63
2022/07/20 05:25:51;;;;;;;15.93;6.40;;;;;;;26.40;55.68;100190.69;5083089;28;20656;-63
2022/07/20 05:28:18;;;;;;;14.57;7.43;;;;;;;26.32;55.28;100189.16;5086261;28;20186;-63
2022/07/20 05:30:45;;;;;;;12.17;6.50;;;;;;;26.11;55.51;100180.81;5086801;28;20196;-63
2022/07/20 05:33:10;;;;;;;13.33;6.40;;;;;;;25.32;58.07;100181.41;5086959;28;20478;-63
2022/07/20 05:35:36;;;;;;;9.33;6.40;;;;;;;25.59;57.82;100184.38;5086411;28;20432;-63
2022/07/20 05:38:01;;;;;;;17.43;6.90;;;;;;;26.05;56.68;100196.19;5087084;28;20239;-63
2022/07/20 05:40:27;;;;;;;15.50;6.00;;;;;;;26.05;56.35;100191.19;5088097;28;20371;-63
2022/07/20 05:42:52;;;;;;;9.77;5.97;;;;;;;26.06;56.15;100177.56;5087759;28;20190;-63
2022/07/20 05:45:17;;;;;;;9.57;6.20;;;;;;;26.12;55.35;100175.81;5089134;28;20219;-63
2022/07/20 05:47:43;;;;;;;9.00;5.57;;;;;;;26.18;55.79;100189.38;5089124;28;20690;-63
2022/07/20 05:50:08;;;;;;;10.90;6.20;;;;;;;26.24;55.34;100190.53;5088053;28;20194;-64
2022/07/20 05:52:34;;;;;;;13.00;7.00;;;;;;;26.08;56.10;100198.19;5089356;28;20181;-64
2022/07/20 05:54:59;;;;;;;10.33;5.73;;;;;;;25.96;56.50;100196.72;5091820;28;20170;-63
2022/07/20 05:57:26;;;;;;;11.37;5.83;;;;;;;26.11;55.27;100201.06;5091844;28;20633;-63
2022/07/20 05:59:51;;;;;;;15.00;6.87;;;;;;;26.08;56.28;100207.72;5091683;28;20178;-63
2022/07/20 06:02:17;;;;;;;13.70;6.50;;;;;;;26.09;55.68;100203.56;5092607;28;20469;-63
2022/07/20 06:04:42;;;;;;;11.40;6.33;;;;;;;26.15;55.76;100210.50;5092968;28;20220;-63
2022/07/20 06:07:07;;;;;;;16.10;6.60;;;;;;;26.14;55.37;100219.63;5092599;28;20687;-63
2022/07/20 06:09:33;;;;;;;21.17;6.37;;;;;;;26.19;55.55;100214.16;5092061;28;20238;-63
2022/07/20 06:11:58;;;;;;;11.53;6.53;;;;;;;26.30;55.69;100214.81;5092685;28;20171;-63
2022/07/20 06:14:24;;;;;;;10.90;6.40;;;;;;;26.39;54.85;100220.09;5092165;28;20182;-63
2022/07/20 06:16:49;;;;;;;17.70;6.23;;;;;;;26.34;54.62;100226.38;5091930;28;20182;-63
2022/07/20 06:19:14;;;;;;;11.80;6.53;;;;;;;26.29;53.82;100230.56;5090490;28;20177;-64
2022/07/20 06:21:40;;;;;;;9.97;5.90;;;;;;;26.33;53.23;100228.44;5090943;28;20542;-63
2022/07/20 06:24:06;;;;;;;11.83;6.80;;;;;;;26.36;53.54;100223.84;5090288;28;20182;-63
2022/07/20 06:26:31;;;;;;;16.53;7.70;;;;;;;26.27;55.25;100235.16;5083510;28;20178;-63
2022/07/20 06:28:56;;;;;;;15.67;7.53;;;;;;;26.14;54.73;100232.00;5088560;28;20178;-63
2022/07/20 06:31:22;;;;;;;13.40;6.90;;;;;;;26.31;55.87;100239.66;5090555;28;20174;-64
2022/07/20 06:33:48;;;;;;;8.87;6.93;;;;;;;26.46;55.00;100237.34;5092521;28;20174;-64
2022/07/20 06:36:16;;;;;;;15.20;6.13;;;;;;;26.40;54.40;100230.41;5092579;28;20520;-64
2022/07/20 06:38:41;;;;;;;14.40;7.10;;;;;;;26.44;54.72;100234.06;5092440;28;20689;-64
2022/07/20 06:41:07;;;;;;;10.30;6.20;;;;;;;26.53;54.91;100235.16;5092217;28;20436;-64
2022/07/20 06:43:32;;;;;;;10.37;6.63;;;;;;;26.37;53.74;100237.91;5091763;28;20189;-64
2022/07/20 06:45:58;;;;;;;11.90;6.50;;;;;;;26.40;54.31;100242.00;5091761;28;20692;-64
2022/07/20 06:48:23;;;;;;;15.33;6.47;;;;;;;26.43;53.38;100235.31;5092422;28;20516;-64
2022/07/20 06:50:49;;;;;;;12.40;7.30;;;;;;;26.40;52.95;100236.19;5091727;28;20209;-64
2022/07/20 06:53:14;;;;;;;13.30;6.83;;;;;;;26.41;53.08;100243.63;5090203;28;20186;-64
2022/07/20 06:55:39;;;;;;;8.80;6.53;;;;;;;26.39;53.06;100255.63;5092188;28;20191;-64
2022/07/20 06:58:05;;;;;;;8.60;6.10;;;;;;;26.44;52.92;100255.16;5093018;28;20696;-63
2022/07/20 07:00:30;;;;;;;12.20;7.17;;;;;;;26.45;52.82;100258.88;5093296;28;20190;-64
2022/07/20 07:02:56;;;;;;;10.40;6.63;;;;;;;26.47;52.77;100265.03;5092799;28;20174;-64
2022/07/20 07:05:21;;;;;;;14.00;6.47;;;;;;;26.46;53.13;100252.66;5092932;28;20228;-64
2022/07/20 07:07:47;;;;;;;12.50;7.13;;;;;;;26.47;53.04;100251.41;5092926;28;20179;-64
2022/07/20 07:10:12;;;;;;;14.37;6.23;;;;;;;26.47;52.89;100257.19;5091246;28;20240;-64
2022/07/20 07:12:38;;;;;;;10.00;5.63;;;;;;;26.44;53.97;100260.94;5090088;28;20179;-64
2022/07/20 07:15:03;;;;;;;22.50;7.97;;;;;;;26.45;53.61;100262.56;5087333;28;20174;-64
2022/07/20 07:17:30;;;;;;;17.63;7.30;;;;;;;26.48;54.02;100258.00;5093213;28;20223;-64
2022/07/20 07:19:59;;;;;;;17.73;6.30;;;;;;;26.47;53.31;100259.25;5093161;28;20178;-64
2022/07/20 07:22:27;;;;;;;15.87;7.47;;;;;;;26.49;53.36;100263.34;5091728;28;20488;-64
2022/07/20 07:24:53;;;;;;;12.00;6.40;;;;;;;26.52;53.40;100265.38;5091568;28;20421;-64
2022/07/20 07:27:19;;;;;;;18.00;7.43;;;;;;;26.54;53.60;100271.53;5085538;28;20461;-64
2022/07/20 07:29:45;;;;;;;19.33;6.43;;;;;;;26.52;53.01;100274.06;5092751;28;20821;-64
2022/07/20 07:32:10;;;;;;;11.90;6.10;;;;;;;26.56;52.67;100274.88;5093022;28;20174;-64
2022/07/20 07:34:36;;;;;;;13.23;6.30;;;;;;;26.57;52.39;100270.72;5092164;28;20169;-64
2022/07/20 07:37:01;;;;;;;15.00;6.50;;;;;;;26.55;52.40;100270.31;5090891;28;20620;-64
2022/07/20 07:39:26;;;;;;;10.10;6.27;;;;;;;26.56;52.54;100274.03;5072172;28;20179;-64
2022/07/20 07:41:52;;;;;;;17.90;6.57;;;;;;;26.57;52.39;100276.50;5078869;28;20185;-64
2022/07/20 07:44:17;;;;;;;14.27;6.43;;;;;;;26.59;53.09;100279.78;5091217;28;20170;-64
2022/07/20 07:46:43;;;;;;;10.43;6.20;;;;;;;26.63;52.75;100283.44;5091011;28;20537;-64
2022/07/20 07:49:08;;;;;;;11.53;6.10;;;;;;;26.61;52.27;100290.94;5092537;28;20194;-64
2022/07/20 07:51:33;;;;;;;15.13;6.07;;;;;;;26.61;52.83;100277.28;5091619;28;20565;-64
2022/07/20 07:53:59;;;;;;;20.60;6.93;;;;;;;26.64;52.34;100284.28;5089445;28;20658;-64
2022/07/20 07:56:24;;;;;;;12.00;6.83;;;;;;;26.65;52.71;100283.81;5090427;28;20505;-64
2022/07/20 07:58:50;;;;;;;15.23;6.00;;;;;;;26.67;51.84;100283.38;5090620;28;20641;-64
2022/07/20 08:01:15;;;;;;;12.20;6.40;;;;;;;26.68;51.68;100294.53;5092262;28;20178;-64
2022/07/20 08:03:41;;;;;;;16.03;6.20;;;;;;;26.68;51.21;100297.44;5090792;28;20253;-64
2022/07/20 08:06:06;;;;;;;12.10;5.97;;;;;;;26.69;50.68;100290.38;5091208;28;20660;-64
2022/07/20 08:08:32;;;;;;;18.13;6.57;;;;;;;26.73;50.76;100296.13;5090136;28;20222;-64
2022/07/20 08:10:57;;;;;;;13.23;5.77;;;;;;;26.72;50.87;100301.13;5089746;28;20217;-64
2022/07/20 08:13:23;;;;;;;10.03;6.00;;;;;;;26.75;50.48;100305.22;5090678;28;20178;-64
2022/07/20 08:15:48;;;;;;;18.27;6.67;;;;;;;26.76;50.33;100301.88;5090001;28;20174;-64
2022/07/20 08:18:13;;;;;;;18.03;6.57;;;;;;;26.75;50.60;100311.81;5090622;28;20182;-64
2022/07/20 08:20:39;;;;;;;9.30;5.47;;;;;;;26.78;49.44;100310.13;5090187;28;20163;-64
2022/07/20 08:23:04;;;;;;;10.00;5.80;;;;;;;26.74;49.77;100313.06;5091120;28;20186;-64
2022/07/20 08:25:30;;;;;;;17.53;6.63;;;;;;;26.77;50.55;100302.69;5090494;28;20227;-64
2022/07/20 08:28:08;;;;;;;13.33;6.40;;;;;;;26.83;49.92;100306.72;5090408;28;20166;-64
2022/07/20 08:30:33;;;;;;;11.63;5.90;;;;;;;26.75;50.09;100300.22;5089091;28;20552;-64
2022/07/20 08:32:58;;;;;;;9.80;5.67;;;;;;;26.78;49.65;100304.31;5091215;28;20507;-64
2022/07/20 08:35:24;;;;;;;13.63;5.80;;;;;;;26.79;49.77;100300.19;5091361;28;20224;-64
2022/07/20 08:37:49;;;;;;;11.80;6.30;;;;;;;26.83;49.90;100313.34;5091330;28;20182;-64
2022/07/20 08:40:15;;;;;;;11.70;5.63;;;;;;;26.83;49.94;100321.22;5089826;28;20584;-64
2022/07/20 08:42:40;;;;;;;16.70;5.57;;;;;;;26.88;49.91;100309.97;5071663;28;20183;-63
2022/07/20 08:45:06;;;;;;;13.20;7.80;;;;;;;26.87;49.67;100313.28;5089583;28;20227;-64
2022/07/20 08:47:31;;;;;;;12.90;7.90;;;;;;;26.96;50.85;100305.69;5089463;28;20181;-64
2022/07/20 08:49:57;;;;;;;16.40;9.87;;;;;;;26.98;51.69;100306.06;5089312;28;20452;-64
2022/07/20 08:52:22;;;;;;;19.63;11.50;;;;;;;26.99;52.01;100316.41;5090076;28;20175;-64
2022/07/20 08:54:48;;;;;;;20.30;13.50;;;;;;;27.04;52.25;100318.81;5090045;28;20183;-64
2022/07/20 08:57:15;;;;;;;19.40;15.00;;;;;;;27.04;52.50;100324.59;5073587;28;20179;-64
2022/07/20 08:59:44;;;;;;;22.10;16.30;;;;;;;27.10;52.83;100317.03;5071292;28;20218;-64
2022/07/20 09:02:09;;;;;;;24.80;14.53;;;;;;;27.08;52.85;100321.63;5069415;28;20436;-63
2022/07/20 09:04:58;;;;;;;23.87;16.27;;;;;;;27.06;53.64;100313.41;5060850;28;20416;-64
2022/07/20 09:07:40;;;;;;;23.70;14.77;;;;;;;27.13;53.44;100309.53;5089983;28;20293;-64
2022/07/20 09:10:07;;;;;;;27.97;16.40;;;;;;;27.12;54.44;100317.44;5088935;28;20480;-64
2022/07/20 09:12:51;;;;;;;21.87;17.50;;;;;;;27.16;54.89;100318.22;5089640;28;20742;-64
2022/07/20 09:15:44;;;;;;;23.83;17.20;;;;;;;27.15;54.85;100327.34;5088089;28;20409;-64
2022/07/20 09:18:31;;;;;;;25.43;17.80;;;;;;;27.14;54.94;100323.59;5087032;28;20435;-64
2022/07/20 09:21:02;;;;;;;32.63;20.73;;;;;;;27.18;55.18;100320.66;5088606;28;20488;-65
2022/07/20 09:23:33;;;;;;;24.97;18.67;;;;;;;27.19;54.97;100314.44;5089599;28;20443;-64
2022/07/20 09:26:03;;;;;;;34.63;21.13;;;;;;;27.19;55.21;100311.53;5089433;28;20919;-65
2022/07/20 09:28:35;;;;;;;31.20;19.10;;;;;;;27.17;54.97;100311.19;5087977;28;20423;-64
2022/07/20 09:31:01;;;;;;;35.13;20.23;;;;;;;27.18;55.81;100318.59;5089668;28;20466;-64
2022/07/20 09:33:28;;;;;;;35.33;19.67;;;;;;;27.17;55.25;100314.06;5090317;28;20423;-65
2022/07/20 09:35:54;;;;;;;29.97;18.90;;;;;;;27.21;55.69;100311.94;5090953;28;20188;-64
2022/07/20 09:38:20;;;;;;;36.23;20.30;;;;;;;27.25;55.21;100318.47;5091062;28;20424;-64
2022/07/20 09:40:45;;;;;;;25.63;18.87;;;;;;;27.25;54.82;100324.28;5089371;28;21169;-64
2022/07/20 09:43:30;;;;;;;27.57;18.63;;;;;;;27.25;54.58;100318.47;5091004;28;20194;-64
2022/07/20 09:46:08;;;;;;;30.33;19.57;;;;;;;27.26;54.64;100325.94;5091034;28;20203;-64
2022/07/20 09:48:39;;;;;;;27.77;19.97;;;;;;;27.31;54.19;100330.41;5087855;28;20787;-64
2022/07/20 09:51:04;;;;;;;29.70;19.53;;;;;;;27.31;54.34;100327.50;5089460;28;20501;-64
2022/07/20 09:53:30;;;;;;;27.47;19.40;;;;;;;27.26;54.48;100317.25;5071246;28;20535;-64
2022/07/20 09:55:56;;;;;;;26.53;18.50;;;;;;;27.27;54.40;100324.66;5087844;28;20206;-64
2022/07/20 09:58:21;;;;;;;21.60;17.27;;;;;;;27.33;54.66;100325.81;5070027;28;20170;-64
2022/07/20 10:00:47;;;;;;;20.40;17.93;;;;;;;27.39;54.59;100329.03;5087238;28;20465;-64
2022/07/20 10:03:12;;;;;;;31.03;20.43;;;;;;;27.46;54.17;100329.72;5089088;28;20185;-64
2022/07/20 10:05:38;;;;;;;34.10;19.37;;;;;;;27.37;54.72;100322.84;5089023;28;20581;-64
2022/07/20 10:08:05;;;;;;;29.93;19.20;;;;;;;27.36;55.23;100327.84;5087684;28;20174;-64
2022/07/20 10:10:30;;;;;;;24.47;18.10;;;;;;;27.35;54.63;100334.88;5089215;28;20202;-64
2022/07/20 10:12:57;;;;;;;23.60;18.40;;;;;;;27.36;54.73;100336.53;5090279;28;20421;-64
2022/07/20 10:15:26;;;;;;;24.50;19.30;;;;;;;27.33;54.62;100330.78;5089421;28;20171;-64
2022/07/20 10:17:51;;;;;;;30.67;18.67;;;;;;;27.37;54.21;100335.25;5087662;28;20443;-64
2022/07/20 10:20:30;;;;;;;26.37;17.37;;;;;;;27.29;54.18;100332.94;5088728;28;20420;-64
2022/07/20 10:23:14;;;;;;;25.80;19.50;;;;;;;27.41;53.92;100338.09;5088499;28;20182;-64
2022/07/20 10:25:39;;;;;;;26.40;17.33;;;;;;;27.36;54.51;100339.44;5086106;28;20940;-64
2022/07/20 10:28:23;;;;;;;27.10;17.70;;;;;;;27.38;54.46;100334.00;5084581;28;20473;-64
2022/07/20 10:31:04;;;;;;;29.97;18.80;;;;;;;27.41;54.36;100335.19;5089800;28;20762;-64
2022/07/20 10:33:30;;;;;;;31.37;16.73;;;;;;;27.35;54.68;100334.88;5090476;28;20420;-64
2022/07/20 10:36:41;;;;;;;27.63;17.77;;;;;;;27.34;54.86;100341.94;5090415;28;20416;-64
2022/07/20 10:38:41;;;;;;;27.57;17.30;;;;;;;27.35;54.52;100358.06;5092268;28;20424;-64
2022/07/20 10:44:20;;;;;;;26.13;17.10;;;;;;;27.46;53.01;100346.28;5092788;28;20193;-64
2022/07/20 10:46:49;;;;;;;23.13;16.87;;;;;;;27.51;52.37;100349.53;5093834;28;20449;-64
2022/07/20 10:49:14;;;;;;;21.83;16.83;;;;;;;27.76;51.86;100358.59;5093677;28;20481;-64
2022/07/20 10:51:39;;;;;;;22.03;16.20;;;;;;;27.69;51.63;100363.72;5093742;28;20420;-64
2022/07/20 10:54:36;;;;;;;20.67;14.33;;;;;;;27.62;51.08;100370.47;5092669;28;20198;-64
2022/07/20 10:57:02;;;;;;;20.20;15.33;;;;;;;27.59;50.92;100359.72;5078676;28;20205;-64
2022/07/20 10:59:27;;;;;;;20.83;15.50;;;;;;;27.64;49.62;100356.31;5073423;28;20425;-64
2022/07/20 11:01:53;;;;;;;27.40;14.17;;;;;;;27.52;49.84;100345.38;5073307;28;20818;-64
2022/07/20 11:04:20;;;;;;;22.73;14.70;;;;;;;27.49;50.60;100352.03;5073470;28;20198;-64
2022/07/20 11:06:45;;;;;;;20.50;13.80;;;;;;;27.42;50.66;100362.94;5092982;28;20624;-64
2022/07/20 11:09:11;;;;;;;22.33;14.53;;;;;;;27.54;49.95;100348.63;5093242;28;20468;-64
2022/07/20 11:11:37;;;;;;;21.83;13.00;;;;;;;27.60;50.21;100351.84;5093083;28;20231;-64
2022/07/20 11:14:04;;;;;;;17.10;13.33;;;;;;;27.52;50.48;100339.56;5093462;28;20539;-64
2022/07/20 11:16:30;;;;;;;19.90;13.13;;;;;;;27.48;51.15;100337.97;5075699;28;20565;-64
2022/07/20 11:18:56;;;;;;;19.23;14.07;;;;;;;27.48;50.30;100335.06;5093176;28;20511;-64
2022/07/20 11:21:38;;;;;;;20.83;14.40;;;;;;;27.50;50.55;100332.56;5093347;28;20763;-65
2022/07/20 11:24:25;;;;;;;20.27;13.70;;;;;;;27.57;50.93;100341.13;5093231;28;20192;-64